This is the latest recevied weather packets stored in our database for station/object IU2PLZ-10. If no packets are shown the sender has not sent any weather packets the latest 10 day(s).
| Time | Temp. | Humidity | Pressure | Rain* | Wind** | Luminosity | Snow |
|---|---|---|---|---|---|---|---|
| 1777915973 | 18.89° C | 58% | 968.3 hPa | - | - | - | - |
| 1777915072 | 19.44° C | 58% | 968.3 hPa | - | - | - | - |
| 1777914172 | 19.44° C | 57% | 968.2 hPa | - | - | - | - |
| 1777913272 | 20° C | 56% | 968.2 hPa | - | - | - | - |
| 1777912372 | 20.56° C | 54% | 968.4 hPa | - | - | - | - |
| 1777911472 | 20° C | 54% | 967.6 hPa | - | - | - | - |
| 1777910571 | 20.56° C | 54% | 968.3 hPa | - | - | - | - |
| 1777909671 | 20.56° C | 53% | 967.6 hPa | - | - | - | - |
| 1777908771 | 21.67° C | 53% | 968.3 hPa | - | - | - | - |
| 1777907871 | 22.22° C | 52% | 968.3 hPa | - | - | - | - |
| 1777906971 | 21.67° C | 51% | 967.5 hPa | - | - | - | - |
| 1777906071 | 22.22° C | 50% | 968.2 hPa | - | - | - | - |
| 1777905171 | 22.78° C | 50% | 968.2 hPa | - | - | - | - |
| 1777904270 | 23.33° C | 48% | 968.4 hPa | - | - | - | - |
| 1777903370 | 23.89° C | 47% | 968.6 hPa | - | - | - | - |
| 1777902472 | 23.89° C | 47% | 968.6 hPa | - | - | - | - |
| 1777901570 | 23.33° C | 46% | 967.9 hPa | - | - | - | - |
| 1777900670 | 23.89° C | 46% | 968.8 hPa | - | - | - | - |
| 1777899769 | 24.44° C | 46% | 969.1 hPa | - | - | - | - |
| 1777898869 | 23.89° C | 46% | 969.1 hPa | - | - | - | - |
| 1777897969 | 23.33° C | 46% | 968.6 hPa | - | - | - | - |
| 1777897069 | 23.89° C | 45% | 969.2 hPa | - | - | - | - |
| 1777896169 | 23.33° C | 44% | 968.5 hPa | - | - | - | - |
| 1777895269 | 22.78° C | 44% | 968.6 hPa | - | - | - | - |
| 1777894369 | 23.33° C | 44% | 968.6 hPa | - | - | - | - |
* Rain since midnight (hover to see other rain measurements)
** Current wind speed in m/s (hover to see current wind gust speed)